sensor_id;sensor_type;location;lat;lon;timestamp;pressure;altitude;pressure_sealevel;temperature;humidity
13553;BME280;6847;48.830;9.116;2022-12-18T02:57:52;98993.88;;;-5.63;57.61
13553;BME280;6847;48.830;9.116;2022-12-18T03:00:22;99027.09;;;-5.43;57.37
13553;BME280;6847;48.830;9.116;2022-12-18T03:02:54;99025.00;;;-5.39;57.57
13553;BME280;6847;48.830;9.116;2022-12-18T03:05:28;99020.56;;;-5.39;57.71
13553;BME280;6847;48.830;9.116;2022-12-18T03:08:00;99009.59;;;-5.44;57.83
13553;BME280;6847;48.830;9.116;2022-12-18T03:10:33;99032.59;;;-5.36;57.43
13553;BME280;6847;48.830;9.116;2022-12-18T03:13:09;99017.22;;;-5.41;57.24
13553;BME280;6847;48.830;9.116;2022-12-18T03:15:41;99036.06;;;-5.36;57.21
13553;BME280;6847;48.830;9.116;2022-12-18T03:18:12;99038.56;;;-5.34;57.34
13553;BME280;6847;48.830;9.116;2022-12-18T03:20:43;99039.41;;;-5.34;57.34
13553;BME280;6847;48.830;9.116;2022-12-18T03:23:15;99028.00;;;-5.34;57.24
13553;BME280;6847;48.830;9.116;2022-12-18T03:25:44;99032.31;;;-5.33;57.79
13553;BME280;6847;48.830;9.116;2022-12-18T03:28:19;99036.63;;;-5.32;57.38
13553;BME280;6847;48.830;9.116;2022-12-18T03:30:58;99042.19;;;-5.35;57.75
13553;BME280;6847;48.830;9.116;2022-12-18T03:33:29;99045.81;;;-5.36;57.94
13553;BME280;6847;48.830;9.116;2022-12-18T03:35:59;99042.47;;;-5.38;57.72
13553;BME280;6847;48.830;9.116;2022-12-18T03:38:27;99040.84;;;-5.39;58.00
13553;BME280;6847;48.830;9.116;2022-12-18T03:40:59;99033.91;;;-5.40;57.62
13553;BME280;6847;48.830;9.116;2022-12-18T03:43:36;99033.22;;;-5.42;57.97
13553;BME280;6847;48.830;9.116;2022-12-18T03:46:11;99019.47;;;-5.46;57.81
13553;BME280;6847;48.830;9.116;2022-12-18T03:48:44;99032.53;;;-5.44;57.97
13553;BME280;6847;48.830;9.116;2022-12-18T03:51:18;99028.97;;;-5.53;57.76
13553;BME280;6847;48.830;9.116;2022-12-18T03:53:53;99022.84;;;-5.53;57.86
13553;BME280;6847;48.830;9.116;2022-12-18T03:56:22;99042.78;;;-5.41;57.95
13553;BME280;6847;48.830;9.116;2022-12-18T03:58:55;99037.50;;;-5.41;57.50
13553;BME280;6847;48.830;9.116;2022-12-18T04:01:25;99039.19;;;-5.40;57.62
13553;BME280;6847;48.830;9.116;2022-12-18T04:03:56;99032.22;;;-5.41;57.72
13553;BME280;6847;48.830;9.116;2022-12-18T04:06:28;99034.72;;;-5.40;58.07
13553;BME280;6847;48.830;9.116;2022-12-18T04:08:57;99032.22;;;-5.41;58.05
13553;BME280;6847;48.830;9.116;2022-12-18T04:11:29;99027.78;;;-5.41;58.01
13553;BME280;6847;48.830;9.116;2022-12-18T04:13:59;99012.31;;;-5.53;57.68
13553;BME280;6847;48.830;9.116;2022-12-18T04:16:26;99029.75;;;-5.43;57.71
13553;BME280;6847;48.830;9.116;2022-12-18T04:18:57;99028.91;;;-5.43;57.87
13553;BME280;6847;48.830;9.116;2022-12-18T04:21:25;99030.84;;;-5.45;57.59
13553;BME280;6847;48.830;9.116;2022-12-18T04:23:54;99034.47;;;-5.46;58.01
13553;BME280;6847;48.830;9.116;2022-12-18T04:26:23;98992.97;;;-5.72;58.15
13553;BME280;6847;48.830;9.116;2022-12-18T04:28:50;99040.91;;;-5.49;57.90
13553;BME280;6847;48.830;9.116;2022-12-18T04:31:25;99047.00;;;-5.48;58.01
13553;BME280;6847;48.830;9.116;2022-12-18T04:33:51;99058.91;;;-5.44;57.93
13553;BME280;6847;48.830;9.116;2022-12-18T04:36:19;99054.19;;;-5.41;57.97
13553;BME280;6847;48.830;9.116;2022-12-18T04:38:49;99049.41;;;-5.37;58.15
13553;BME280;6847;48.830;9.116;2022-12-18T04:41:17;99049.28;;;-5.36;58.15
13553;BME280;6847;48.830;9.116;2022-12-18T04:43:55;99034.97;;;-5.33;58.18
13553;BME280;6847;48.830;9.116;2022-12-18T04:46:26;99035.50;;;-5.30;57.85
13553;BME280;6847;48.830;9.116;2022-12-18T04:48:54;99029.06;;;-5.27;58.28
13553;BME280;6847;48.830;9.116;2022-12-18T04:51:22;99019.19;;;-5.25;58.40
13553;BME280;6847;48.830;9.116;2022-12-18T04:53:49;99027.94;;;-5.25;58.50
13553;BME280;6847;48.830;9.116;2022-12-18T04:56:20;99016.56;;;-5.25;58.25
13553;BME280;6847;48.830;9.116;2022-12-18T04:58:49;99021.00;;;-5.26;58.06
13553;BME280;6847;48.830;9.116;2022-12-18T05:01:18;99036.00;;;-5.26;58.36
13553;BME280;6847;48.830;9.116;2022-12-18T05:03:47;99035.50;;;-5.30;58.30
13553;BME280;6847;48.830;9.116;2022-12-18T05:06:14;99018.16;;;-5.32;58.11
13553;BME280;6847;48.830;9.116;2022-12-18T05:08:44;99026.34;;;-5.35;58.24
13553;BME280;6847;48.830;9.116;2022-12-18T05:11:14;99006.75;;;-5.50;58.26
13553;BME280;6847;48.830;9.116;2022-12-18T05:13:43;99021.97;;;-5.44;57.84
13553;BME280;6847;48.830;9.116;2022-12-18T05:16:12;99034.47;;;-5.46;58.03
13553;BME280;6847;48.830;9.116;2022-12-18T05:18:39;99039.75;;;-5.46;58.22
13553;BME280;6847;48.830;9.116;2022-12-18T05:21:09;99046.69;;;-5.45;58.16
13553;BME280;6847;48.830;9.116;2022-12-18T05:23:38;99040.59;;;-5.46;58.31
13553;BME280;6847;48.830;9.116;2022-12-18T05:26:08;99051.97;;;-5.45;58.08
13553;BME280;6847;48.830;9.116;2022-12-18T05:28:40;99060.84;;;-5.46;58.21
13553;BME280;6847;48.830;9.116;2022-12-18T05:31:08;99051.97;;;-5.45;57.95
13553;BME280;6847;48.830;9.116;2022-12-18T05:33:35;99057.25;;;-5.45;58.10
13553;BME280;6847;48.830;9.116;2022-12-18T05:36:03;99070.28;;;-5.44;57.92
13553;BME280;6847;48.830;9.116;2022-12-18T05:38:35;99064.03;;;-5.43;57.95
13553;BME280;6847;48.830;9.116;2022-12-18T05:41:03;99062.25;;;-5.42;58.19
13553;BME280;6847;48.830;9.116;2022-12-18T05:43:30;99058.06;;;-5.45;58.35
13553;BME280;6847;48.830;9.116;2022-12-18T05:45:57;99054.59;;;-5.45;58.46
13553;BME280;6847;48.830;9.116;2022-12-18T05:48:25;99064.19;;;-5.44;58.19
13553;BME280;6847;48.830;9.116;2022-12-18T05:50:55;99054.59;;;-5.45;58.35
13553;BME280;6847;48.830;9.116;2022-12-18T05:53:22;99045.84;;;-5.46;58.32
13553;BME280;6847;48.830;9.116;2022-12-18T05:55:50;99047.53;;;-5.45;58.27
13553;BME280;6847;48.830;9.116;2022-12-18T05:58:17;99046.41;;;-5.42;58.23
13553;BME280;6847;48.830;9.116;2022-12-18T06:00:45;99051.53;;;-5.41;58.21
13553;BME280;6847;48.830;9.116;2022-12-18T06:03:16;99049.72;;;-5.40;58.12
13553;BME280;6847;48.830;9.116;2022-12-18T06:05:44;99055.00;;;-5.40;58.19
13553;BME280;6847;48.830;9.116;2022-12-18T06:08:12;99055.78;;;-5.30;58.21
13553;BME280;6847;48.830;9.116;2022-12-18T06:10:51;99067.13;;;-5.20;58.20
13553;BME280;6847;48.830;9.116;2022-12-18T06:13:22;99007.09;;;-5.45;57.91
13553;BME280;6847;48.830;9.116;2022-12-18T06:15:49;99061.09;;;-4.95;58.63
13553;BME280;6847;48.830;9.116;2022-12-18T06:18:17;99062.38;;;-4.81;58.60
13553;BME280;6847;48.830;9.116;2022-12-18T06:20:45;99060.78;;;-4.74;58.23
13553;BME280;6847;48.830;9.116;2022-12-18T06:23:21;99058.69;;;-4.70;58.56
13553;BME280;6847;48.830;9.116;2022-12-18T06:25:52;99058.06;;;-4.64;58.24
13553;BME280;6847;48.830;9.116;2022-12-18T06:28:20;99055.50;;;-4.56;58.58
13553;BME280;6847;48.830;9.116;2022-12-18T06:30:47;99062.44;;;-4.55;58.66
13553;BME280;6847;48.830;9.116;2022-12-18T06:33:16;99067.28;;;-4.51;58.36
13553;BME280;6847;48.830;9.116;2022-12-18T06:35:46;99013.19;;;-4.82;58.26
13553;BME280;6847;48.830;9.116;2022-12-18T06:38:19;99071.34;;;-4.56;58.10
13553;BME280;6847;48.830;9.116;2022-12-18T06:40:48;99084.19;;;-4.61;57.90
13553;BME280;6847;48.830;9.116;2022-12-18T06:43:18;99089.78;;;-4.64;58.50
13553;BME280;6847;48.830;9.116;2022-12-18T06:45:47;99078.66;;;-4.68;58.39
13553;BME280;6847;48.830;9.116;2022-12-18T06:48:18;99078.53;;;-4.66;58.21
13553;BME280;6847;48.830;9.116;2022-12-18T06:50:45;99066.91;;;-4.73;58.47
13553;BME280;6847;48.830;9.116;2022-12-18T06:53:12;99075.53;;;-4.71;58.41
13553;BME280;6847;48.830;9.116;2022-12-18T06:55:42;99068.19;;;-4.77;57.97
13553;BME280;6847;48.830;9.116;2022-12-18T06:58:10;99070.75;;;-4.86;58.16
13553;BME280;6847;48.830;9.116;2022-12-18T07:00:40;99080.56;;;-4.96;57.84
13553;BME280;6847;48.830;9.116;2022-12-18T07:03:10;99089.38;;;-5.05;58.00
13553;BME280;6847;48.830;9.116;2022-12-18T07:05:40;99092.78;;;-5.12;58.24
13553;BME280;6847;48.830;9.116;2022-12-18T07:08:08;99075.94;;;-5.29;59.11
13553;BME280;6847;48.830;9.116;2022-12-18T07:10:41;99100.06;;;-5.24;58.11
13553;BME280;6847;48.830;9.116;2022-12-18T07:13:11;99101.03;;;-5.25;58.60
13553;BME280;6847;48.830;9.116;2022-12-18T07:15:44;99098.69;;;-5.28;58.72
13553;BME280;6847;48.830;9.116;2022-12-18T07:18:18;99102.97;;;-5.27;58.44
13553;BME280;6847;48.830;9.116;2022-12-18T07:20:45;99107.97;;;-5.24;58.71
13553;BME280;6847;48.830;9.116;2022-12-18T07:23:13;99107.69;;;-5.21;58.11
13553;BME280;6847;48.830;9.116;2022-12-18T07:25:46;99110.00;;;-5.18;58.80
13553;BME280;6847;48.830;9.116;2022-12-18T07:28:13;99107.09;;;-5.15;58.81
13553;BME280;6847;48.830;9.116;2022-12-18T07:30:41;99110.97;;;-5.09;58.52
13553;BME280;6847;48.830;9.116;2022-12-18T07:33:10;99116.47;;;-5.03;58.46
13553;BME280;6847;48.830;9.116;2022-12-18T07:35:41;99122.81;;;-4.96;58.80
13553;BME280;6847;48.830;9.116;2022-12-18T07:38:10;99127.19;;;-4.87;58.84
13553;BME280;6847;48.830;9.116;2022-12-18T07:40:37;99123.44;;;-4.66;58.38
13553;BME280;6847;48.830;9.116;2022-12-18T07:43:14;99119.78;;;-4.30;58.02
13553;BME280;6847;48.830;9.116;2022-12-18T07:45:44;99117.69;;;-4.00;57.29
13553;BME280;6847;48.830;9.116;2022-12-18T07:48:16;99120.38;;;-3.75;57.30
13553;BME280;6847;48.830;9.116;2022-12-18T07:50:45;99120.25;;;-3.65;57.55
13553;BME280;6847;48.830;9.116;2022-12-18T07:53:15;98969.69;;;-4.44;57.13
13553;BME280;6847;48.830;9.116;2022-12-18T07:55:45;99117.47;;;-3.21;57.11
13553;BME280;6847;48.830;9.116;2022-12-18T07:58:12;99115.66;;;-2.54;55.69
13553;BME280;6847;48.830;9.116;2022-12-18T08:00:46;99119.19;;;-1.97;55.33
13553;BME280;6847;48.830;9.116;2022-12-18T08:03:13;99119.91;;;-1.48;54.35
13553;BME280;6847;48.830;9.116;2022-12-18T08:05:40;99071.53;;;-1.35;54.01
13553;BME280;6847;48.830;9.116;2022-12-18T08:08:11;99113.16;;;-0.58;53.23
13553;BME280;6847;48.830;9.116;2022-12-18T08:10:40;99119.28;;;0.11;52.42
13553;BME280;6847;48.830;9.116;2022-12-18T08:13:07;99113.00;;;0.71;51.19
13553;BME280;6847;48.830;9.116;2022-12-18T08:15:39;99120.09;;;1.29;50.36
13553;BME280;6847;48.830;9.116;2022-12-18T08:18:08;99093.78;;;1.62;50.51
13553;BME280;6847;48.830;9.116;2022-12-18T08:20:39;99125.28;;;2.44;49.33
13553;BME280;6847;48.830;9.116;2022-12-18T08:23:10;99123.22;;;3.15;48.63
13553;BME280;6847;48.830;9.116;2022-12-18T08:25:38;99120.31;;;3.77;48.48
13553;BME280;6847;48.830;9.116;2022-12-18T08:28:05;99123.47;;;4.40;47.00
13553;BME280;6847;48.830;9.116;2022-12-18T08:30:34;99123.72;;;5.03;46.62
13553;BME280;6847;48.830;9.116;2022-12-18T08:33:01;99105.13;;;5.52;46.32
13553;BME280;6847;48.830;9.116;2022-12-18T08:35:30;99120.91;;;6.12;46.03
13553;BME280;6847;48.830;9.116;2022-12-18T08:37:58;99132.28;;;6.63;45.65
13553;BME280;6847;48.830;9.116;2022-12-18T08:40:25;99132.22;;;7.25;45.03
13553;BME280;6847;48.830;9.116;2022-12-18T08:42:52;99122.09;;;7.87;44.11
13553;BME280;6847;48.830;9.116;2022-12-18T08:45:37;99112.88;;;8.47;43.18
13553;BME280;6847;48.830;9.116;2022-12-18T08:48:05;99131.28;;;9.09;43.03
13553;BME280;6847;48.830;9.116;2022-12-18T08:50:34;99133.13;;;9.60;42.97
13553;BME280;6847;48.830;9.116;2022-12-18T08:53:03;99127.88;;;10.10;42.71
13553;BME280;6847;48.830;9.116;2022-12-18T08:55:31;99126.63;;;10.46;41.66
13553;BME280;6847;48.830;9.116;2022-12-18T08:58:00;99128.06;;;10.87;41.67
13553;BME280;6847;48.830;9.116;2022-12-18T09:00:27;99125.66;;;11.29;41.01
13553;BME280;6847;48.830;9.116;2022-12-18T09:02:53;99118.50;;;11.67;41.65
13553;BME280;6847;48.830;9.116;2022-12-18T09:05:20;99114.50;;;11.96;41.05
13553;BME280;6847;48.830;9.116;2022-12-18T09:07:48;99106.88;;;12.20;41.34
13553;BME280;6847;48.830;9.116;2022-12-18T09:10:16;99116.31;;;12.44;41.12
13553;BME280;6847;48.830;9.116;2022-12-18T09:12:45;99113.50;;;12.66;40.65
13553;BME280;6847;48.830;9.116;2022-12-18T09:15:13;99099.47;;;12.84;40.34
13553;BME280;6847;48.830;9.116;2022-12-18T09:17:40;99109.22;;;13.17;40.64
13553;BME280;6847;48.830;9.116;2022-12-18T09:20:10;99084.69;;;13.12;40.68
13553;BME280;6847;48.830;9.116;2022-12-18T09:22:37;99111.78;;;13.39;40.85
13553;BME280;6847;48.830;9.116;2022-12-18T09:25:05;99105.91;;;13.67;40.37
13553;BME280;6847;48.830;9.116;2022-12-18T09:27:36;99097.78;;;13.88;40.20
13553;BME280;6847;48.830;9.116;2022-12-18T09:30:28;99097.75;;;13.83;40.59
13553;BME280;6847;48.830;9.116;2022-12-18T09:32:55;99107.16;;;13.45;41.52
13553;BME280;6847;48.830;9.116;2022-12-18T09:35:22;99098.47;;;12.95;41.76
13553;BME280;6847;48.830;9.116;2022-12-18T09:37:49;99095.13;;;12.41;42.86
13553;BME280;6847;48.830;9.116;2022-12-18T09:40:25;99104.47;;;11.97;43.76
13553;BME280;6847;48.830;9.116;2022-12-18T09:42:55;99101.41;;;11.88;43.24
13553;BME280;6847;48.830;9.116;2022-12-18T09:45:24;99104.31;;;12.08;43.18
13553;BME280;6847;48.830;9.116;2022-12-18T09:47:53;99098.31;;;12.33;42.90
13553;BME280;6847;48.830;9.116;2022-12-18T09:50:27;99090.53;;;12.47;43.26
13553;BME280;6847;48.830;9.116;2022-12-18T09:52:58;99078.56;;;12.43;42.20
13553;BME280;6847;48.830;9.116;2022-12-18T09:55:33;99059.16;;;12.29;42.56
13553;BME280;6847;48.830;9.116;2022-12-18T09:58:05;99094.06;;;12.47;42.90
13553;BME280;6847;48.830;9.116;2022-12-18T10:00:36;99090.66;;;12.62;43.30
13553;BME280;6847;48.830;9.116;2022-12-18T10:03:09;99094.28;;;12.78;42.58
13553;BME280;6847;48.830;9.116;2022-12-18T10:05:51;99080.47;;;12.84;42.53
13553;BME280;6847;48.830;9.116;2022-12-18T10:08:24;99100.31;;;13.32;42.71
13553;BME280;6847;48.830;9.116;2022-12-18T10:11:01;99091.09;;;13.38;42.79
13553;BME280;6847;48.830;9.116;2022-12-18T10:13:36;99068.25;;;13.39;41.78
13553;BME280;6847;48.830;9.116;2022-12-18T10:16:12;99097.25;;;13.81;42.03
13553;BME280;6847;48.830;9.116;2022-12-18T10:19:17;99096.16;;;13.87;41.54
13553;BME280;6847;48.830;9.116;2022-12-18T10:21:52;99108.13;;;13.81;41.82
13553;BME280;6847;48.830;9.116;2022-12-18T10:24:32;99101.53;;;13.66;42.31
13553;BME280;6847;48.830;9.116;2022-12-18T10:27:11;99107.53;;;13.74;42.66
13553;BME280;6847;48.830;9.116;2022-12-18T10:29:39;99097.25;;;13.81;42.84
13553;BME280;6847;48.830;9.116;2022-12-18T10:32:12;99112.00;;;14.10;42.47
13553;BME280;6847;48.830;9.116;2022-12-18T10:34:44;99108.16;;;14.21;42.68
13553;BME280;6847;48.830;9.116;2022-12-18T10:37:16;99104.38;;;14.32;42.93
13553;BME280;6847;48.830;9.116;2022-12-18T10:40:07;99108.75;;;14.38;43.18
13553;BME280;6847;48.830;9.116;2022-12-18T10:42:40;99081.97;;;13.85;43.44
13553;BME280;6847;48.830;9.116;2022-12-18T10:45:12;99098.22;;;13.54;43.95
13553;BME280;6847;48.830;9.116;2022-12-18T10:47:42;99097.75;;;13.10;45.25
13553;BME280;6847;48.830;9.116;2022-12-18T10:50:19;99099.72;;;12.73;45.28
13553;BME280;6847;48.830;9.116;2022-12-18T10:52:55;99091.25;;;12.32;45.97
13553;BME280;6847;48.830;9.116;2022-12-18T10:55:24;99102.75;;;12.12;46.46
13553;BME280;6847;48.830;9.116;2022-12-18T10:58:13;99103.47;;;12.03;46.76
13553;BME280;6847;48.830;9.116;2022-12-18T11:00:42;99099.97;;;11.80;46.54
13553;BME280;6847;48.830;9.116;2022-12-18T11:03:29;99076.22;;;11.44;47.65
13553;BME280;6847;48.830;9.116;2022-12-18T11:06:03;99063.88;;;11.31;46.77
13553;BME280;6847;48.830;9.116;2022-12-18T11:08:31;99098.59;;;11.56;46.91
13553;BME280;6847;48.830;9.116;2022-12-18T11:11:00;99094.88;;;11.40;48.11
13553;BME280;6847;48.830;9.116;2022-12-18T11:13:31;99084.38;;;11.44;47.75
13553;BME280;6847;48.830;9.116;2022-12-18T11:15:59;99080.31;;;11.46;48.40
13553;BME280;6847;48.830;9.116;2022-12-18T11:18:34;99078.38;;;11.69;47.86
13553;BME280;6847;48.830;9.116;2022-12-18T11:21:06;99061.97;;;11.54;47.20
13553;BME280;6847;48.830;9.116;2022-12-18T11:23:42;99071.47;;;11.56;47.23
13553;BME280;6847;48.830;9.116;2022-12-18T11:26:15;99068.50;;;11.58;48.32
13553;BME280;6847;48.830;9.116;2022-12-18T11:28:47;99049.84;;;11.39;47.54
13553;BME280;6847;48.830;9.116;2022-12-18T11:31:22;99058.19;;;11.55;48.29
13553;BME280;6847;48.830;9.116;2022-12-18T11:34:02;99066.84;;;11.57;47.83
13553;BME280;6847;48.830;9.116;2022-12-18T11:36:37;99071.78;;;11.60;48.25
13553;BME280;6847;48.830;9.116;2022-12-18T11:39:12;99057.94;;;11.34;48.95
13553;BME280;6847;48.830;9.116;2022-12-18T11:41:48;99058.28;;;11.16;48.99
13553;BME280;6847;48.830;9.116;2022-12-18T11:44:45;99054.09;;;10.87;48.66
13553;BME280;6847;48.830;9.116;2022-12-18T11:47:27;99063.91;;;10.71;49.78
13553;BME280;6847;48.830;9.116;2022-12-18T11:50:02;99057.94;;;10.52;49.57
13553;BME280;6847;48.830;9.116;2022-12-18T11:52:40;99057.84;;;10.14;49.69
13553;BME280;6847;48.830;9.116;2022-12-18T11:55:30;99055.84;;;9.92;50.26
13553;BME280;6847;48.830;9.116;2022-12-18T11:58:11;99032.81;;;9.73;50.68
13553;BME280;6847;48.830;9.116;2022-12-18T12:00:58;99026.56;;;9.56;51.43
13553;BME280;6847;48.830;9.116;2022-12-18T12:04:01;99035.94;;;9.37;51.06
13553;BME280;6847;48.830;9.116;2022-12-18T12:06:38;99036.00;;;9.13;51.29
13553;BME280;6847;48.830;9.116;2022-12-18T12:09:17;99031.63;;;8.84;51.67
13553;BME280;6847;48.830;9.116;2022-12-18T12:11:58;99010.53;;;8.34;51.70
13553;BME280;6847;48.830;9.116;2022-12-18T12:14:48;99023.28;;;8.04;52.17
13553;BME280;6847;48.830;9.116;2022-12-18T12:17:29;99015.25;;;7.62;52.81
13553;BME280;6847;48.830;9.116;2022-12-18T12:20:02;99028.66;;;7.39;52.54
13553;BME280;6847;48.830;9.116;2022-12-18T12:22:38;99020.06;;;7.00;52.68
13553;BME280;6847;48.830;9.116;2022-12-18T12:25:40;99024.84;;;6.80;52.84
13553;BME280;6847;48.830;9.116;2022-12-18T12:28:23;99028.72;;;6.66;53.00
13553;BME280;6847;48.830;9.116;2022-12-18T12:31:01;99027.38;;;6.39;53.27
13553;BME280;6847;48.830;9.116;2022-12-18T12:33:40;99032.94;;;6.19;53.30
13553;BME280;6847;48.830;9.116;2022-12-18T12:36:17;99030.59;;;6.04;53.51
13553;BME280;6847;48.830;9.116;2022-12-18T12:38:50;99025.75;;;5.88;52.70
13553;BME280;6847;48.830;9.116;2022-12-18T12:41:24;99027.03;;;5.79;52.89
13553;BME280;6847;48.830;9.116;2022-12-18T12:44:16;99025.09;;;5.68;52.61
13553;BME280;6847;48.830;9.116;2022-12-18T12:46:59;99015.81;;;5.64;52.66
13553;BME280;6847;48.830;9.116;2022-12-18T12:49:45;99026.69;;;5.69;53.01
13553;BME280;6847;48.830;9.116;2022-12-18T12:52:26;99029.22;;;5.64;52.82
13553;BME280;6847;48.830;9.116;2022-12-18T12:54:55;99034.34;;;5.72;52.43
13553;BME280;6847;48.830;9.116;2022-12-18T12:57:33;99041.88;;;5.88;51.81
13553;BME280;6847;48.830;9.116;2022-12-18T13:00:05;99037.72;;;5.92;52.27
13553;BME280;6847;48.830;9.116;2022-12-18T13:02:47;99043.59;;;6.07;51.99
13553;BME280;6847;48.830;9.116;2022-12-18T13:05:33;99027.31;;;6.02;51.88
13553;BME280;6847;48.830;9.116;2022-12-18T13:08:04;99042.00;;;6.00;51.11
13553;BME280;6847;48.830;9.116;2022-12-18T13:10:35;99042.41;;;6.03;52.23
13553;BME280;6847;48.830;9.116;2022-12-18T13:13:06;99043.00;;;6.05;51.27
13553;BME280;6847;48.830;9.116;2022-12-18T13:15:36;99059.00;;;6.18;51.57
13553;BME280;6847;48.830;9.116;2022-12-18T13:18:13;99032.28;;;6.23;51.58
13553;BME280;6847;48.830;9.116;2022-12-18T13:20:49;99040.22;;;6.37;51.28
13553;BME280;6847;48.830;9.116;2022-12-18T13:23:29;99031.50;;;6.41;50.79
13553;BME280;6847;48.830;9.116;2022-12-18T13:26:30;99037.69;;;6.42;50.87
13553;BME280;6847;48.830;9.116;2022-12-18T13:29:02;99030.22;;;6.25;50.80
13553;BME280;6847;48.830;9.116;2022-12-18T13:34:39;99024.97;;;5.81;51.02
13553;BME280;6847;48.830;9.116;2022-12-18T13:37:42;99025.66;;;5.70;50.67
13553;BME280;6847;48.830;9.116;2022-12-18T13:43:31;99011.31;;;5.26;51.81
13553;BME280;6847;48.830;9.116;2022-12-18T13:46:19;98998.81;;;5.07;51.40
13553;BME280;6847;48.830;9.116;2022-12-18T13:49:02;99012.34;;;4.87;51.54
13553;BME280;6847;48.830;9.116;2022-12-18T13:51:42;98991.84;;;4.48;51.83
13553;BME280;6847;48.830;9.116;2022-12-18T13:54:24;99001.75;;;4.41;51.39
13553;BME280;6847;48.830;9.116;2022-12-18T13:56:56;98988.22;;;4.09;51.79
13553;BME280;6847;48.830;9.116;2022-12-18T13:59:33;98996.66;;;4.06;51.06
13553;BME280;6847;48.830;9.116;2022-12-18T14:02:13;99014.63;;;3.99;51.11
13553;BME280;6847;48.830;9.116;2022-12-18T14:04:46;99011.31;;;3.84;51.42
13553;BME280;6847;48.830;9.116;2022-12-18T14:07:18;99008.84;;;3.69;51.37
13553;BME280;6847;48.830;9.116;2022-12-18T14:09:50;99004.31;;;3.63;51.35
13553;BME280;6847;48.830;9.116;2022-12-18T14:12:24;99015.41;;;3.54;51.45
13553;BME280;6847;48.830;9.116;2022-12-18T14:15:31;98977.28;;;3.25;51.73
13553;BME280;6847;48.830;9.116;2022-12-18T14:18:02;99010.47;;;3.38;51.67
13553;BME280;6847;48.830;9.116;2022-12-18T14:20:39;99014.56;;;3.27;51.35
13553;BME280;6847;48.830;9.116;2022-12-18T14:23:26;99017.41;;;3.12;51.07
13553;BME280;6847;48.830;9.116;2022-12-18T14:25:59;99006.63;;;2.86;51.39
13553;BME280;6847;48.830;9.116;2022-12-18T14:28:30;99015.06;;;2.89;51.15
13553;BME280;6847;48.830;9.116;2022-12-18T14:31:00;99010.09;;;2.80;51.09
13553;BME280;6847;48.830;9.116;2022-12-18T14:33:40;99024.75;;;2.84;51.35
13553;BME280;6847;48.830;9.116;2022-12-18T14:36:16;99023.09;;;2.83;51.38
13553;BME280;6847;48.830;9.116;2022-12-18T14:38:48;99010.09;;;2.80;51.29
13553;BME280;6847;48.830;9.116;2022-12-18T14:41:22;99014.81;;;2.78;50.84
13553;BME280;6847;48.830;9.116;2022-12-18T14:43:52;99022.00;;;2.71;51.34
13553;BME280;6847;48.830;9.116;2022-12-18T14:46:32;99006.06;;;2.49;51.20
13553;BME280;6847;48.830;9.116;2022-12-18T14:49:18;99021.75;;;2.59;51.24
13553;BME280;6847;48.830;9.116;2022-12-18T14:51:50;99004.56;;;2.40;51.31
13553;BME280;6847;48.830;9.116;2022-12-18T14:54:22;99025.75;;;2.42;51.40
13553;BME280;6847;48.830;9.116;2022-12-18T14:57:00;99028.38;;;2.35;51.37
13553;BME280;6847;48.830;9.116;2022-12-18T14:59:28;99033.06;;;2.27;51.32
13553;BME280;6847;48.830;9.116;2022-12-18T15:02:03;99001.66;;;2.01;51.03
13553;BME280;6847;48.830;9.116;2022-12-18T15:04:36;99016.66;;;2.02;51.18
13553;BME280;6847;48.830;9.116;2022-12-18T15:07:09;99020.56;;;1.99;51.29
13553;BME280;6847;48.830;9.116;2022-12-18T15:10:01;99013.06;;;1.88;51.62
13553;BME280;6847;48.830;9.116;2022-12-18T15:12:39;99027.41;;;1.80;51.05
13553;BME280;6847;48.830;9.116;2022-12-18T15:18:18;99013.25;;;1.59;51.74
13553;BME280;6847;48.830;9.116;2022-12-18T15:20:48;99008.22;;;1.49;51.44
13553;BME280;6847;48.830;9.116;2022-12-18T15:23:27;99012.69;;;1.42;51.99
13553;BME280;6847;48.830;9.116;2022-12-18T15:26:00;98995.94;;;1.27;51.85
13553;BME280;6847;48.830;9.116;2022-12-18T15:28:44;99011.31;;;1.25;51.67
13553;BME280;6847;48.830;9.116;2022-12-18T15:31:33;99001.78;;;1.16;51.92
13553;BME280;6847;48.830;9.116;2022-12-18T15:34:18;99007.84;;;1.09;51.87
13553;BME280;6847;48.830;9.116;2022-12-18T15:36:50;99005.31;;;1.01;52.03
13553;BME280;6847;48.830;9.116;2022-12-18T15:39:21;99004.03;;;0.97;52.07
13553;BME280;6847;48.830;9.116;2022-12-18T15:41:53;99004.41;;;0.94;51.82
13553;BME280;6847;48.830;9.116;2022-12-18T15:44:43;99000.22;;;0.85;51.94
13553;BME280;6847;48.830;9.116;2022-12-18T15:47:14;99007.19;;;0.86;52.18
13553;BME280;6847;48.830;9.116;2022-12-18T15:49:52;99008.47;;;0.90;52.13
13553;BME280;6847;48.830;9.116;2022-12-18T15:52:27;99003.22;;;0.97;52.39
13553;BME280;6847;48.830;9.116;2022-12-18T15:54:55;99004.88;;;0.98;52.29
13553;BME280;6847;48.830;9.116;2022-12-18T15:57:53;99004.41;;;0.94;52.09
13553;BME280;6847;48.830;9.116;2022-12-18T16:00:28;99010.47;;;0.88;52.65
13553;BME280;6847;48.830;9.116;2022-12-18T16:03:00;99012.72;;;0.85;52.26
13553;BME280;6847;48.830;9.116;2022-12-18T16:09:30;99009.06;;;0.71;52.39
13553;BME280;6847;48.830;9.116;2022-12-18T16:12:03;98995.78;;;0.56;52.49
13553;BME280;6847;48.830;9.116;2022-12-18T16:14:34;99014.78;;;0.68;51.87
13553;BME280;6847;48.830;9.116;2022-12-18T16:17:10;99006.13;;;0.66;52.37
13553;BME280;6847;48.830;9.116;2022-12-18T16:19:45;99011.00;;;0.62;52.34
13553;BME280;6847;48.830;9.116;2022-12-18T16:22:26;99008.91;;;0.58;52.17
13553;BME280;6847;48.830;9.116;2022-12-18T16:24:58;99005.59;;;0.56;52.49
13553;BME280;6847;48.830;9.116;2022-12-18T16:27:36;98998.25;;;0.58;52.42
13553;BME280;6847;48.830;9.116;2022-12-18T16:30:13;99008.91;;;0.58;52.56
13553;BME280;6847;48.830;9.116;2022-12-18T16:32:45;99008.91;;;0.58;52.45
13553;BME280;6847;48.830;9.116;2022-12-18T16:35:15;99001.94;;;0.57;52.47
13553;BME280;6847;48.830;9.116;2022-12-18T16:37:48;98986.84;;;0.49;52.65
13553;BME280;6847;48.830;9.116;2022-12-18T16:40:18;98903.34;;;0.06;52.58
13553;BME280;6847;48.830;9.116;2022-12-18T16:42:46;98953.63;;;0.30;52.30
13553;BME280;6847;48.830;9.116;2022-12-18T16:45:16;98957.81;;;0.40;52.33
13553;BME280;6847;48.830;9.116;2022-12-18T16:47:51;98995.47;;;0.66;52.52
13553;BME280;6847;48.830;9.116;2022-12-18T16:50:28;98991.81;;;0.67;52.66
13553;BME280;6847;48.830;9.116;2022-12-18T16:52:55;98993.47;;;0.68;52.46
13553;BME280;6847;48.830;9.116;2022-12-18T16:55:23;98994.06;;;0.70;52.80
13553;BME280;6847;48.830;9.116;2022-12-18T16:57:55;98986.72;;;0.72;52.63